Pittsburgh, Pennsylvania
Traffic Map
Current Weather Conditions
Pittsburgh, Pennsylvania
Scattered Clouds
Scattered Clouds
72°
Feels Like: 72°
Wind Chill: 72° Ceiling: Unl
Heat Index: 72° Visibility: 10mi
Dew Point: 53° Wind: 9mph
Humidity: 51% Direction: 320° (NW)
Pressure: 29.92in Gusts: 21mph
Raw Report DataKAGC 301653Z 32008G18KT 290V010 10SM FEW036 SCT049 22/12 A2992 RMK AO2 SLP127 T02220117
Traffic Incident Summary
Active as of:
Severity:
Category:
InformationThere was an issue retrieving the traffic information for this location. Please try a different location or try again shortly.
Advertisements
Track Severe Weather on mobile